Time;durP1;ratioP1;P1;durP2;ratioP2;P2;SDS_P1;SDS_P2;PMS_P1;PMS_P2;Temp;Humidity;BMP_temperature;BMP_pressure;BME280_temperature;BME280_humidity;BME280_pressure;Samples;Min_cycle;Max_cycle;Signal;HPM_P1;HPM_P2
2022/05/27 00:00:50;;;;;;;13.05;3.75;;;;;;;;;;5072518;28;20158;-75
2022/05/27 00:03:16;;;;;;;8.30;3.20;;;;;;;;;;5075399;28;20444;-74
2022/05/27 00:05:48;;;;;;;10.98;3.47;;;;;;;;;;5084627;28;20459;-75
2022/05/27 00:08:14;;;;;;;10.32;3.40;;;;;;;;;;5073255;28;20045;-74
2022/05/27 00:10:41;;;;;;;12.07;3.33;;;;;;;;;;5058573;28;20055;-74
2022/05/27 00:13:07;;;;;;;12.15;3.85;;;;;;;;;;5071768;28;20101;-74
2022/05/27 00:15:33;;;;;;;10.00;3.47;;;;;;;;;;5088508;28;20045;-74
2022/05/27 00:17:59;;;;;;;14.63;3.60;;;;;;;;;;5087560;28;20475;-74
2022/05/27 00:20:26;;;;;;;10.10;3.25;;;;;;;;;;5059730;28;20100;-74
2022/05/27 00:22:52;;;;;;;9.50;3.22;;;;;;;;;;5080979;28;20044;-74
2022/05/27 00:25:19;;;;;;;12.57;3.45;;;;;;;;;;5073486;28;20040;-74
2022/05/27 00:27:45;;;;;;;9.15;3.28;;;;;;;;;;5063897;28;20122;-74
2022/05/27 00:30:11;;;;;;;13.00;3.40;;;;;;;;;;5088310;28;20040;-74
2022/05/27 00:32:38;;;;;;;8.80;3.20;;;;;;;;;;5060310;28;20475;-74
2022/05/27 00:35:04;;;;;;;11.02;3.50;;;;;;;;;;5070738;28;20438;-74
2022/05/27 00:37:30;;;;;;;8.25;3.13;;;;;;;;;;5071620;28;20575;-74
2022/05/27 00:39:56;;;;;;;11.52;3.22;;;;;;;;;;5073403;28;20385;-74
2022/05/27 00:42:22;;;;;;;11.02;3.75;;;;;;;;;;5077372;28;20051;-75
2022/05/27 00:44:48;;;;;;;8.00;3.35;;;;;;;;;;5062988;28;20040;-74
2022/05/27 00:47:16;;;;;;;11.38;3.63;;;;;;;;;;5084606;28;20052;-74
2022/05/27 00:49:48;;;;;;;8.43;3.17;;;;;;;;;;5083768;28;20035;-74
2022/05/27 00:52:16;;;;;;;7.95;3.30;;;;;;;;;;5085276;28;20143;-74
2022/05/27 00:54:43;;;;;;;12.98;3.33;;;;;;;;;;5060903;28;20456;-74
2022/05/27 00:57:15;;;;;;;9.05;3.20;;;;;;;;;;5078952;28;20044;-74
2022/05/27 00:59:44;;;;;;;10.70;3.13;;;;;;;;;;5065581;28;20032;-74
2022/05/27 01:02:10;;;;;;;9.40;2.95;;;;;;;;;;5071240;28;20054;-74
2022/05/27 01:04:37;;;;;;;11.75;3.35;;;;;;;;;;5077146;28;20047;-74
2022/05/27 01:07:04;;;;;;;10.63;3.25;;;;;;;;;;5071180;28;20067;-74
2022/05/27 01:09:30;;;;;;;13.02;3.22;;;;;;;;;;5068245;28;20048;-74
2022/05/27 01:11:59;;;;;;;12.00;3.67;;;;;;;;;;5070835;28;20057;-74
2022/05/27 01:14:41;;;;;;;10.48;3.17;;;;;;;;;;5063401;28;20052;-74
2022/05/27 01:17:13;;;;;;;12.48;3.38;;;;;;;;;;5071028;28;20040;-74
2022/05/27 01:22:36;;;;;;;12.88;3.42;;;;;;;;;;5081716;28;20058;-74
2022/05/27 01:25:20;;;;;;;10.77;3.40;;;;;;;;;;5074560;28;20353;-74
2022/05/27 01:27:49;;;;;;;8.57;3.10;;;;;;;;;;5074587;28;20040;-74
2022/05/27 01:30:18;;;;;;;13.57;2.92;;;;;;;;;;5059814;28;20100;-75
2022/05/27 01:32:48;;;;;;;8.45;2.78;;;;;;;;;;5083389;28;20487;-74
2022/05/27 01:35:24;;;;;;;11.15;3.50;;;;;;;;;;5084642;28;20048;-74
2022/05/27 01:38:10;;;;;;;8.88;3.30;;;;;;;;;;5071094;28;20123;-74
2022/05/27 01:40:56;;;;;;;9.48;2.83;;;;;;;;;;5065240;28;20040;-74
2022/05/27 01:43:25;;;;;;;7.72;2.72;;;;;;;;;;5063809;28;20052;-74
2022/05/27 01:45:51;;;;;;;10.30;3.38;;;;;;;;;;5069569;28;20396;-74
2022/05/27 01:48:28;;;;;;;13.30;3.38;;;;;;;;;;5055189;28;20243;-74
2022/05/27 01:50:57;;;;;;;7.43;3.13;;;;;;;;;;5071069;28;20076;-74
2022/05/27 01:53:41;;;;;;;11.10;3.53;;;;;;;;;;5078818;28;20044;-74
2022/05/27 01:56:07;;;;;;;10.70;3.55;;;;;;;;;;5079070;28;20047;-74
2022/05/27 01:58:33;;;;;;;11.02;3.45;;;;;;;;;;5063919;28;20409;-74
2022/05/27 02:00:59;;;;;;;9.65;3.05;;;;;;;;;;5064143;28;20040;-75
2022/05/27 02:03:30;;;;;;;12.48;3.88;;;;;;;;;;5071475;28;20047;-74
2022/05/27 02:06:00;;;;;;;8.98;3.47;;;;;;;;;;5071345;28;20108;-74
2022/05/27 02:08:41;;;;;;;9.73;3.33;;;;;;;;;;5067822;28;20052;-74
2022/05/27 02:11:11;;;;;;;7.60;3.50;;;;;;;;;;5073190;28;20114;-74
2022/05/27 02:13:49;;;;;;;13.48;3.50;;;;;;;;;;5040222;28;20480;-74
2022/05/27 02:16:18;;;;;;;10.82;3.10;;;;;;;;;;5041240;28;20052;-74
2022/05/27 02:18:49;;;;;;;9.20;3.50;;;;;;;;;;5034856;28;20132;-74
2022/05/27 02:21:30;;;;;;;11.27;3.40;;;;;;;;;;5030536;28;20037;-74
2022/05/27 02:24:01;;;;;;;15.68;3.75;;;;;;;;;;5039606;28;20041;-74
2022/05/27 02:26:33;;;;;;;8.05;3.00;;;;;;;;;;5037822;28;20056;-74
2022/05/27 02:29:01;;;;;;;13.25;3.38;;;;;;;;;;5039667;28;20041;-74
2022/05/27 02:31:29;;;;;;;9.98;3.00;;;;;;;;;;5028807;28;20056;-74
2022/05/27 02:36:45;;;;;;;7.97;2.80;;;;;;;;;;5039417;28;20046;-74
2022/05/27 02:39:11;;;;;;;6.20;2.58;;;;;;;;;;5036562;28;20052;-74
2022/05/27 02:41:50;;;;;;;6.22;2.70;;;;;;;;;;5029873;28;20128;-74
2022/05/27 02:44:28;;;;;;;9.93;2.90;;;;;;;;;;5037870;28;20048;-74
2022/05/27 02:47:04;;;;;;;8.05;2.90;;;;;;;;;;5031245;28;20171;-74
2022/05/27 02:49:42;;;;;;;9.27;2.50;;;;;;;;;;5040499;28;20139;-74
2022/05/27 02:52:27;;;;;;;10.43;3.30;;;;;;;;;;5040955;28;20038;-74
2022/05/27 02:54:57;;;;;;;6.10;2.45;;;;;;;;;;5038441;28;20041;-74
2022/05/27 02:57:33;;;;;;;7.10;2.70;;;;;;;;;;5035960;28;20037;-74
2022/05/27 03:00:02;;;;;;;9.52;3.25;;;;;;;;;;5035566;28;20047;-74
2022/05/27 03:02:28;;;;;;;7.53;2.63;;;;;;;;;;5033186;28;20119;-74
2022/05/27 03:04:58;;;;;;;4.53;2.45;;;;;;;;;;5047271;28;20041;-74
2022/05/27 03:07:33;;;;;;;9.32;2.70;;;;;;;;;;5038039;28;20041;-74
2022/05/27 03:09:59;;;;;;;9.45;3.22;;;;;;;;;;5038531;28;20371;-74
2022/05/27 03:12:34;;;;;;;7.43;2.92;;;;;;;;;;5051699;28;20063;-74
2022/05/27 03:15:13;;;;;;;9.25;2.78;;;;;;;;;;5073553;28;20760;-74
2022/05/27 03:17:47;;;;;;;7.63;2.53;;;;;;;;;;5074061;28;20047;-74
2022/05/27 03:20:26;;;;;;;8.85;3.00;;;;;;;;;;5077482;28;20107;-74
2022/05/27 03:23:04;;;;;;;11.10;3.05;;;;;;;;;;5080093;28;20042;-74
2022/05/27 03:25:41;;;;;;;9.70;2.97;;;;;;;;;;5075967;28;20212;-73
2022/05/27 03:28:27;;;;;;;15.27;3.58;;;;;;;;;;5068491;28;20058;-74
2022/05/27 03:31:04;;;;;;;13.00;3.20;;;;;;;;;;5066993;28;20075;-74
2022/05/27 03:33:50;;;;;;;9.38;3.05;;;;;;;;;;5064395;28;20418;-74
2022/05/27 03:36:28;;;;;;;10.90;3.28;;;;;;;;;;5056872;28;21397;-74
2022/05/27 03:38:58;;;;;;;6.95;2.97;;;;;;;;;;5087498;28;20044;-73
2022/05/27 03:41:31;;;;;;;9.13;3.30;;;;;;;;;;5062251;28;20041;-74
2022/05/27 03:43:57;;;;;;;8.90;3.17;;;;;;;;;;5085028;28;20348;-74
2022/05/27 03:46:41;;;;;;;8.68;2.90;;;;;;;;;;5079275;28;20499;-74
2022/05/27 03:49:07;;;;;;;11.32;2.95;;;;;;;;;;5083720;28;20187;-74
2022/05/27 03:51:38;;;;;;;9.68;3.30;;;;;;;;;;5070075;28;20546;-74
2022/05/27 03:54:05;;;;;;;9.50;3.58;;;;;;;;;;5071407;28;20048;-74
2022/05/27 03:56:34;;;;;;;9.60;3.22;;;;;;;;;;5063677;28;20047;-74
2022/05/27 03:59:01;;;;;;;11.32;3.28;;;;;;;;;;5054479;28;20377;-74
2022/05/27 04:01:29;;;;;;;11.32;2.92;;;;;;;;;;5064619;28;20051;-74
2022/05/27 04:03:57;;;;;;;11.80;3.72;;;;;;;;;;5061807;28;20492;-74
2022/05/27 04:06:23;;;;;;;10.80;3.30;;;;;;;;;;5071360;28;20036;-74
2022/05/27 04:08:49;;;;;;;7.35;3.03;;;;;;;;;;5062155;28;20056;-74
2022/05/27 04:11:15;;;;;;;13.00;3.25;;;;;;;;;;5058254;28;20068;-74
2022/05/27 04:13:41;;;;;;;12.02;3.47;;;;;;;;;;5070411;28;20155;-74
2022/05/27 04:16:07;;;;;;;9.85;3.00;;;;;;;;;;5068854;28;20040;-74
2022/05/27 04:18:36;;;;;;;10.52;3.40;;;;;;;;;;5080038;28;20518;-74
2022/05/27 04:21:02;;;;;;;10.25;3.10;;;;;;;;;;5055742;28;20060;-73
2022/05/27 04:23:28;;;;;;;8.30;2.70;;;;;;;;;;5080879;28;20040;-74
2022/05/27 04:25:54;;;;;;;10.18;3.80;;;;;;;;;;5057815;28;20664;-74
2022/05/27 04:28:20;;;;;;;6.97;2.85;;;;;;;;;;5063564;28;20052;-73
2022/05/27 04:30:46;;;;;;;8.57;3.20;;;;;;;;;;5070481;28;20036;-74
2022/05/27 04:33:13;;;;;;;9.30;3.00;;;;;;;;;;5079112;28;20472;-74
2022/05/27 04:35:39;;;;;;;10.05;2.95;;;;;;;;;;5066988;28;20036;-74
2022/05/27 04:38:05;;;;;;;10.63;3.40;;;;;;;;;;5058509;28;20048;-73
2022/05/27 04:40:31;;;;;;;9.82;3.13;;;;;;;;;;5068035;28;20044;-74
2022/05/27 04:42:58;;;;;;;6.93;2.92;;;;;;;;;;5059722;28;20043;-74
2022/05/27 04:45:24;;;;;;;10.10;3.60;;;;;;;;;;5073515;28;20056;-74
2022/05/27 04:47:50;;;;;;;10.23;3.33;;;;;;;;;;5069916;28;20093;-74
2022/05/27 04:50:18;;;;;;;9.13;3.38;;;;;;;;;;5069926;28;20048;-74
2022/05/27 04:52:47;;;;;;;9.77;3.60;;;;;;;;;;5072499;28;20084;-73
2022/05/27 04:55:13;;;;;;;7.03;2.65;;;;;;;;;;5062734;28;20373;-74
2022/05/27 04:57:41;;;;;;;9.13;3.35;;;;;;;;;;5067911;28;20404;-73
2022/05/27 05:00:15;;;;;;;11.63;3.40;;;;;;;;;;5060145;28;20044;-73
2022/05/27 05:02:42;;;;;;;8.10;3.15;;;;;;;;;;5084403;28;20051;-73
2022/05/27 05:05:16;;;;;;;10.02;3.33;;;;;;;;;;5065821;28;20542;-74
2022/05/27 05:07:43;;;;;;;11.85;3.10;;;;;;;;;;5063989;28;20048;-73
2022/05/27 05:10:10;;;;;;;9.77;3.50;;;;;;;;;;5080394;28;20090;-73
2022/05/27 05:12:36;;;;;;;10.77;3.30;;;;;;;;;;5066098;28;20071;-73
2022/05/27 05:15:02;;;;;;;11.80;3.20;;;;;;;;;;5067532;28;20079;-73
2022/05/27 05:17:31;;;;;;;8.45;3.45;;;;;;;;;;5066957;28;21025;-73
2022/05/27 05:19:58;;;;;;;10.82;3.60;;;;;;;;;;5074766;28;20068;-74
2022/05/27 05:22:24;;;;;;;11.15;3.38;;;;;;;;;;5063775;28;20052;-74
2022/05/27 05:24:53;;;;;;;9.65;2.95;;;;;;;;;;5078905;28;20024;-74
2022/05/27 05:27:20;;;;;;;8.77;3.30;;;;;;;;;;5076584;28;20055;-74
2022/05/27 05:29:46;;;;;;;9.30;3.33;;;;;;;;;;5066592;28;20065;-73
2022/05/27 05:32:12;;;;;;;10.18;3.88;;;;;;;;;;5078550;28;20047;-73
2022/05/27 05:34:38;;;;;;;7.65;3.00;;;;;;;;;;5069552;28;20048;-74
2022/05/27 05:37:04;;;;;;;8.25;3.30;;;;;;;;;;5061941;28;20055;-74
2022/05/27 05:39:31;;;;;;;6.32;3.10;;;;;;;;;;5078374;28;20108;-75
2022/05/27 05:41:58;;;;;;;9.18;3.15;;;;;;;;;;5063226;28;20048;-74
2022/05/27 05:44:26;;;;;;;9.30;3.20;;;;;;;;;;5062435;28;20090;-74
2022/05/27 05:46:52;;;;;;;11.80;3.28;;;;;;;;;;5083921;28;20048;-74
2022/05/27 05:49:18;;;;;;;11.95;3.38;;;;;;;;;;5087310;28;20041;-74
2022/05/27 05:51:44;;;;;;;8.32;2.92;;;;;;;;;;5063174;28;20044;-74
2022/05/27 05:54:10;;;;;;;7.47;2.95;;;;;;;;;;5074464;28;20066;-74
2022/05/27 05:56:36;;;;;;;8.50;2.95;;;;;;;;;;5077251;28;20101;-75
2022/05/27 05:59:02;;;;;;;10.85;3.03;;;;;;;;;;5062484;28;20441;-75
2022/05/27 06:01:28;;;;;;;9.73;3.13;;;;;;;;;;5076133;28;20031;-75
2022/05/27 06:03:55;;;;;;;7.57;3.42;;;;;;;;;;5071449;28;20180;-74
2022/05/27 06:06:21;;;;;;;10.80;3.50;;;;;;;;;;5066791;28;20396;-74
2022/05/27 06:08:47;;;;;;;7.22;3.28;;;;;;;;;;5069324;28;20048;-75
2022/05/27 06:11:16;;;;;;;11.52;3.42;;;;;;;;;;5064750;28;20047;-74
2022/05/27 06:13:42;;;;;;;9.77;3.17;;;;;;;;;;5083875;28;20109;-74
2022/05/27 06:16:09;;;;;;;11.30;3.67;;;;;;;;;;5069586;28;20044;-74
2022/05/27 06:18:36;;;;;;;12.65;3.63;;;;;;;;;;5069662;28;20044;-74
2022/05/27 06:21:02;;;;;;;11.90;3.50;;;;;;;;;;5065476;28;20046;-74
2022/05/27 06:23:28;;;;;;;7.53;3.28;;;;;;;;;;5073093;28;20387;-74
2022/05/27 06:25:59;;;;;;;10.00;3.40;;;;;;;;;;5068869;28;20040;-74
2022/05/27 06:36:41;;;;;;;5.95;2.97;;;;;;;;;;5069288;28;20041;-76
2022/05/27 06:39:07;;;;;;;8.90;3.40;;;;;;;;;;5056130;28;20109;-75
2022/05/27 06:41:34;;;;;;;11.02;3.20;;;;;;;;;;5077421;28;20044;-76
2022/05/27 06:44:00;;;;;;;13.68;3.63;;;;;;;;;;5083034;28;20480;-75
2022/05/27 06:46:26;;;;;;;10.02;3.53;;;;;;;;;;5071912;28;20087;-76
2022/05/27 06:48:52;;;;;;;9.55;3.40;;;;;;;;;;5070749;28;20043;-76
2022/05/27 06:51:19;;;;;;;9.38;3.17;;;;;;;;;;5071271;28;20048;-76
2022/05/27 06:53:45;;;;;;;12.10;3.58;;;;;;;;;;5060023;28;20044;-76
2022/05/27 06:56:11;;;;;;;8.77;3.10;;;;;;;;;;5084180;28;20395;-75
2022/05/27 06:58:38;;;;;;;11.30;3.58;;;;;;;;;;5094674;28;20040;-75
2022/05/27 07:01:04;;;;;;;13.02;3.72;;;;;;;;;;5074321;28;20044;-76
2022/05/27 07:03:30;;;;;;;9.15;3.15;;;;;;;;;;5082558;28;20070;-76
2022/05/27 07:05:56;;;;;;;10.63;3.60;;;;;;;;;;5070208;28;20109;-76
2022/05/27 07:08:22;;;;;;;12.23;3.50;;;;;;;;;;5071235;28;20058;-76
2022/05/27 07:10:48;;;;;;;10.75;3.30;;;;;;;;;;5075431;28;20044;-75
2022/05/27 07:13:14;;;;;;;8.40;4.05;;;;;;;;;;5074943;28;20164;-76
2022/05/27 07:15:41;;;;;;;12.73;3.42;;;;;;;;;;5069469;28;20807;-75
2022/05/27 07:18:08;;;;;;;16.55;3.80;;;;;;;;;;5071020;28;20135;-75
2022/05/27 07:20:38;;;;;;;10.90;3.85;;;;;;;;;;5077261;28;20079;-76
2022/05/27 07:23:07;;;;;;;10.73;4.05;;;;;;;;;;5085553;28;20045;-76
2022/05/27 07:25:34;;;;;;;11.70;3.20;;;;;;;;;;5075598;28;20047;-76
2022/05/27 07:28:00;;;;;;;10.65;3.60;;;;;;;;;;5073985;28;20119;-75
2022/05/27 07:30:26;;;;;;;7.63;2.95;;;;;;;;;;5073398;28;20044;-76
2022/05/27 07:32:53;;;;;;;10.25;2.90;;;;;;;;;;5074369;28;20040;-76
2022/05/27 07:35:19;;;;;;;9.73;3.30;;;;;;;;;;5077147;28;20046;-76
2022/05/27 07:37:45;;;;;;;10.18;3.28;;;;;;;;;;5071894;28;20040;-76
2022/05/27 07:40:11;;;;;;;9.55;3.13;;;;;;;;;;5083453;28;20123;-76
2022/05/27 07:42:38;;;;;;;8.85;3.13;;;;;;;;;;5060051;28;20048;-75
2022/05/27 07:45:05;;;;;;;8.35;3.00;;;;;;;;;;5072167;28;20394;-76
2022/05/27 07:47:31;;;;;;;11.73;3.60;;;;;;;;;;5063702;28;20483;-76
2022/05/27 07:50:00;;;;;;;8.85;3.00;;;;;;;;;;5076251;28;20044;-76
2022/05/27 07:52:26;;;;;;;11.32;3.40;;;;;;;;;;5065434;28;20131;-76
2022/05/27 07:54:54;;;;;;;8.43;3.10;;;;;;;;;;5059101;28;20036;-76
2022/05/27 07:57:27;;;;;;;11.13;3.55;;;;;;;;;;5069907;28;20547;-75
2022/05/27 07:59:53;;;;;;;7.63;2.80;;;;;;;;;;5077795;28;20041;-75
2022/05/27 08:02:19;;;;;;;10.68;3.33;;;;;;;;;;5067103;28;20040;-76
2022/05/27 08:04:48;;;;;;;6.32;3.20;;;;;;;;;;5077964;28;20044;-75
2022/05/27 08:07:14;;;;;;;10.80;3.47;;;;;;;;;;5070902;28;20066;-75
2022/05/27 08:09:40;;;;;;;6.53;3.20;;;;;;;;;;5073151;28;20048;-76
2022/05/27 08:12:06;;;;;;;8.77;3.17;;;;;;;;;;5074753;28;20049;-75
2022/05/27 08:14:33;;;;;;;12.70;2.97;;;;;;;;;;5068102;28;20051;-75
2022/05/27 08:16:59;;;;;;;9.07;3.20;;;;;;;;;;5068311;28;20127;-75
2022/05/27 08:19:25;;;;;;;14.35;3.92;;;;;;;;;;5058598;28;20044;-76
2022/05/27 08:21:51;;;;;;;9.95;3.40;;;;;;;;;;5069293;28;20093;-75
2022/05/27 08:24:17;;;;;;;11.60;3.13;;;;;;;;;;5074481;28;20092;-75
2022/05/27 08:26:44;;;;;;;9.88;3.15;;;;;;;;;;5071837;22;20679;-75
2022/05/27 08:29:11;;;;;;;8.43;2.70;;;;;;;;;;5012211;28;20073;-75
2022/05/27 08:31:37;;;;;;;9.20;2.85;;;;;;;;;;5006927;28;20125;-74
2022/05/27 08:39:35;;;;;;;6.78;3.33;;;;;;;;;;5024815;28;20124;-75
2022/05/27 08:42:06;;;;;;;11.35;3.42;;;;;;;;;;5017807;28;20038;-76
2022/05/27 08:44:47;;;;;;;10.75;3.40;;;;;;;;;;5013988;28;20124;-75
2022/05/27 08:47:29;;;;;;;11.18;3.47;;;;;;;;;;5021607;28;20060;-75
2022/05/27 08:50:05;;;;;;;8.70;3.70;;;;;;;;;;5011230;28;20058;-76
2022/05/27 08:52:37;;;;;;;10.20;3.38;;;;;;;;;;5006730;28;20119;-75
2022/05/27 09:01:18;;;;;;;7.28;2.85;;;;;;;;;;5005589;28;20045;-75
2022/05/27 09:03:46;;;;;;;7.35;2.83;;;;;;;;;;4996878;28;20363;-75
2022/05/27 09:06:13;;;;;;;9.07;3.17;;;;;;;;;;5015425;28;20480;-75
2022/05/27 09:08:40;;;;;;;9.45;3.30;;;;;;;;;;5011584;28;20115;-75
2022/05/27 09:11:11;;;;;;;9.13;3.30;;;;;;;;;;5007871;28;20405;-75
2022/05/27 09:13:43;;;;;;;7.75;3.05;;;;;;;;;;4998378;28;20065;-75
2022/05/27 09:16:09;;;;;;;9.18;2.95;;;;;;;;;;5013914;28;20124;-75
2022/05/27 09:18:38;;;;;;;7.65;2.97;;;;;;;;;;5014298;28;20124;-75
2022/05/27 09:21:07;;;;;;;7.65;3.67;;;;;;;;;;5020802;28;20096;-75
2022/05/27 09:23:52;;;;;;;12.80;3.50;;;;;;;;;;5002067;28;20125;-75
2022/05/27 09:26:21;;;;;;;10.05;3.17;;;;;;;;;;5006193;28;20053;-75
2022/05/27 09:28:54;;;;;;;12.45;3.53;;;;;;;;;;5011263;28;20052;-75
2022/05/27 09:31:28;;;;;;;10.85;3.05;;;;;;;;;;4996764;28;20132;-75
2022/05/27 09:33:55;;;;;;;11.00;3.42;;;;;;;;;;5010546;28;20104;-76
2022/05/27 09:36:24;;;;;;;9.52;3.28;;;;;;;;;;5020153;28;20042;-75
2022/05/27 09:38:58;;;;;;;10.88;3.47;;;;;;;;;;5021241;28;20057;-75
2022/05/27 09:41:30;;;;;;;11.98;3.30;;;;;;;;;;5007235;28;20498;-75
2022/05/27 09:43:57;;;;;;;7.90;3.10;;;;;;;;;;5020477;28;20126;-75
2022/05/27 09:46:30;;;;;;;10.93;3.20;;;;;;;;;;5021368;28;20073;-75
2022/05/27 09:48:57;;;;;;;11.57;4.57;;;;;;;;;;5023306;28;20048;-74
2022/05/27 09:51:24;;;;;;;10.60;3.65;;;;;;;;;;5009428;28;20097;-75
2022/05/27 09:53:55;;;;;;;10.68;3.72;;;;;;;;;;5024926;28;20367;-75
2022/05/27 09:56:43;;;;;;;9.30;3.60;;;;;;;;;;5011191;28;20045;-75
2022/05/27 09:59:19;;;;;;;9.57;3.22;;;;;;;;;;5003584;28;20061;-74
2022/05/27 10:01:45;;;;;;;12.75;3.97;;;;;;;;;;5013736;28;20405;-74
2022/05/27 10:04:16;;;;;;;10.68;3.33;;;;;;;;;;5010089;28;20037;-74
2022/05/27 10:06:42;;;;;;;11.10;3.47;;;;;;;;;;5005602;28;20054;-74
2022/05/27 10:09:11;;;;;;;10.82;3.28;;;;;;;;;;5006485;28;20046;-74
2022/05/27 10:11:52;;;;;;;8.50;3.20;;;;;;;;;;5042493;28;20058;-74
2022/05/27 10:14:28;;;;;;;10.80;3.33;;;;;;;;;;5015361;28;20768;-74
2022/05/27 10:17:08;;;;;;;7.60;3.22;;;;;;;;;;5024536;28;20049;-74
2022/05/27 10:19:34;;;;;;;12.23;3.30;;;;;;;;;;5012278;28;20069;-75
2022/05/27 10:22:01;;;;;;;11.05;3.60;;;;;;;;;;5010124;28;20046;-74
2022/05/27 10:24:30;;;;;;;12.45;4.18;;;;;;;;;;5020505;28;20056;-75
2022/05/27 10:27:08;;;;;;;12.20;3.05;;;;;;;;;;5011224;28;20143;-75
2022/05/27 10:29:47;;;;;;;13.70;3.45;;;;;;;;;;5013491;28;20112;-74
2022/05/27 10:32:25;;;;;;;11.35;4.13;;;;;;;;;;5005931;28;20038;-75
2022/05/27 10:34:52;;;;;;;11.98;3.53;;;;;;;;;;5007385;28;20129;-75
2022/05/27 10:37:37;;;;;;;8.90;3.50;;;;;;;;;;5006500;28;20100;-75
2022/05/27 10:40:09;;;;;;;10.18;3.83;;;;;;;;;;5002535;28;20049;-75
2022/05/27 10:42:48;;;;;;;11.77;3.28;;;;;;;;;;5019591;28;20049;-75
2022/05/27 10:45:19;;;;;;;11.25;3.72;;;;;;;;;;5004541;28;20049;-75
2022/05/27 10:47:57;;;;;;;10.38;3.75;;;;;;;;;;5014913;28;20101;-75
2022/05/27 10:50:23;;;;;;;8.93;3.22;;;;;;;;;;5003984;28;20057;-74
2022/05/27 10:52:52;;;;;;;9.38;3.28;;;;;;;;;;4992010;28;20046;-75
2022/05/27 10:55:23;;;;;;;9.13;3.47;;;;;;;;;;5001637;28;20045;-75
2022/05/27 11:03:35;;;;;;;9.77;3.65;;;;;;;;;;5006851;28;20989;-74
2022/05/27 11:06:08;;;;;;;8.40;3.03;;;;;;;;;;5023454;28;20041;-75
2022/05/27 11:08:34;;;;;;;8.18;3.53;;;;;;;;;;5009681;28;20058;-75
2022/05/27 11:11:20;;;;;;;10.02;3.15;;;;;;;;;;5011347;28;20037;-74
2022/05/27 11:16:51;;;;;;;14.73;4.30;;;;;;;;;;5008201;28;20501;-75
2022/05/27 11:19:32;;;;;;;12.00;3.80;;;;;;;;;;5002363;28;20046;-75
2022/05/27 11:22:08;;;;;;;11.45;3.72;;;;;;;;;;5002724;28;20183;-74
2022/05/27 11:24:37;;;;;;;10.32;3.35;;;;;;;;;;5004125;28;20041;-74
2022/05/27 11:27:22;;;;;;;10.98;3.45;;;;;;;;;;5002608;28;20537;-74
2022/05/27 11:29:51;;;;;;;10.18;4.43;;;;;;;;;;5040562;28;20075;-74
2022/05/27 11:32:42;;;;;;;10.30;3.40;;;;;;;;;;5021696;28;20050;-74
2022/05/27 11:35:17;;;;;;;11.75;3.85;;;;;;;;;;5012819;28;20045;-75
2022/05/27 11:38:01;;;;;;;10.40;3.30;;;;;;;;;;5012927;28;20054;-75
2022/05/27 11:40:39;;;;;;;12.82;3.40;;;;;;;;;;5012464;28;20037;-75
2022/05/27 11:43:15;;;;;;;10.95;3.55;;;;;;;;;;4995210;28;20054;-76
2022/05/27 11:45:46;;;;;;;12.75;4.03;;;;;;;;;;5010202;28;20069;-75
2022/05/27 11:48:21;;;;;;;13.20;3.72;;;;;;;;;;5021400;28;20106;-75
2022/05/27 11:51:05;;;;;;;17.30;3.70;;;;;;;;;;5016853;28;20037;-75
2022/05/27 11:53:53;;;;;;;12.52;3.65;;;;;;;;;;5013986;28;20048;-75
2022/05/27 11:56:39;;;;;;;7.85;3.08;;;;;;;;;;5011747;28;20137;-75
2022/05/27 11:59:23;;;;;;;10.68;3.70;;;;;;;;;;5009625;28;20504;-75
2022/05/27 12:01:54;;;;;;;10.02;3.65;;;;;;;;;;5015389;28;20128;-75
2022/05/27 12:04:42;;;;;;;12.57;3.88;;;;;;;;;;5016075;28;20042;-75
2022/05/27 12:07:20;;;;;;;11.60;3.45;;;;;;;;;;5014699;28;20081;-75
2022/05/27 12:09:53;;;;;;;9.93;3.50;;;;;;;;;;5013299;28;20037;-75
2022/05/27 12:12:22;;;;;;;10.57;3.50;;;;;;;;;;5022475;28;20434;-75
2022/05/27 12:14:51;;;;;;;9.88;3.25;;;;;;;;;;5016309;28;20482;-75
2022/05/27 12:17:22;;;;;;;8.05;3.30;;;;;;;;;;5013712;28;20038;-75
2022/05/27 12:19:59;;;;;;;11.85;3.53;;;;;;;;;;5006981;28;20042;-75
2022/05/27 12:22:27;;;;;;;15.23;3.65;;;;;;;;;;5005349;28;20451;-75
2022/05/27 12:24:59;;;;;;;10.02;3.05;;;;;;;;;;5010938;28;20045;-75
2022/05/27 12:27:25;;;;;;;9.07;3.13;;;;;;;;;;5012612;28;20065;-75
2022/05/27 12:29:52;;;;;;;8.95;3.00;;;;;;;;;;5012492;28;20070;-75
2022/05/27 12:32:19;;;;;;;13.75;4.30;;;;;;;;;;5013185;28;20607;-75
2022/05/27 12:34:48;;;;;;;12.30;3.60;;;;;;;;;;5011863;28;20066;-75
2022/05/27 12:37:21;;;;;;;11.68;3.60;;;;;;;;;;5015244;28;20050;-75
2022/05/27 12:39:49;;;;;;;12.98;4.10;;;;;;;;;;5010054;28;20050;-75
2022/05/27 12:42:19;;;;;;;12.07;3.78;;;;;;;;;;5029665;28;20072;-75
2022/05/27 12:44:46;;;;;;;13.63;5.85;;;;;;;;;;5023518;28;20120;-76
2022/05/27 12:47:16;;;;;;;17.08;3.75;;;;;;;;;;5019474;28;20053;-75
2022/05/27 12:49:45;;;;;;;10.18;3.17;;;;;;;;;;5011762;28;20057;-76
2022/05/27 12:52:29;;;;;;;12.55;3.95;;;;;;;;;;5022064;28;20449;-75
2022/05/27 12:54:58;;;;;;;12.05;3.38;;;;;;;;;;5012364;28;20050;-75
2022/05/27 13:03:41;;;;;;;10.35;3.45;;;;;;;;;;5015874;28;20076;-75
2022/05/27 13:06:14;;;;;;;12.32;3.85;;;;;;;;;;5032302;28;20073;-75
2022/05/27 13:09:00;;;;;;;9.43;3.47;;;;;;;;;;5018460;28;20551;-75
2022/05/27 13:11:37;;;;;;;12.43;3.60;;;;;;;;;;5013313;28;20453;-75
2022/05/27 13:14:06;;;;;;;11.13;3.70;;;;;;;;;;5011752;28;20046;-76
2022/05/27 13:16:44;;;;;;;9.82;3.17;;;;;;;;;;4991527;28;20042;-75
2022/05/27 13:19:23;;;;;;;10.23;3.00;;;;;;;;;;5001107;28;20383;-75
2022/05/27 13:21:53;;;;;;;8.98;3.28;;;;;;;;;;5003916;28;20112;-75
2022/05/27 13:24:19;;;;;;;6.95;2.90;;;;;;;;;;5019915;28;20049;-76
2022/05/27 13:26:45;;;;;;;9.43;3.38;;;;;;;;;;5001417;28;20072;-75
2022/05/27 13:29:16;;;;;;;8.02;3.20;;;;;;;;;;5023692;28;20041;-75
2022/05/27 13:31:43;;;;;;;11.27;3.50;;;;;;;;;;5005025;28;20048;-75
2022/05/27 13:34:15;;;;;;;10.32;3.30;;;;;;;;;;5015284;28;20037;-75
2022/05/27 13:36:57;;;;;;;11.88;3.30;;;;;;;;;;5026051;28;20046;-75
2022/05/27 13:39:26;;;;;;;9.70;3.20;;;;;;;;;;5012424;28;20042;-75
2022/05/27 13:41:53;;;;;;;8.98;3.30;;;;;;;;;;5014391;28;20060;-75
2022/05/27 13:44:21;;;;;;;12.75;3.58;;;;;;;;;;4996546;28;20042;-75
2022/05/27 13:46:55;;;;;;;10.73;3.22;;;;;;;;;;5026801;28;20046;-75
2022/05/27 13:49:30;;;;;;;9.82;3.35;;;;;;;;;;5010111;28;20073;-75
2022/05/27 13:51:56;;;;;;;8.18;3.20;;;;;;;;;;5006754;28;20487;-75
2022/05/27 13:54:29;;;;;;;9.55;3.22;;;;;;;;;;5010108;28;20046;-74
2022/05/27 13:56:57;;;;;;;9.52;3.45;;;;;;;;;;5009244;28;20483;-74
2022/05/27 13:59:32;;;;;;;11.30;3.40;;;;;;;;;;5010433;28;20038;-75
2022/05/27 14:01:59;;;;;;;9.07;3.17;;;;;;;;;;4999822;28;20081;-74
2022/05/27 14:04:34;;;;;;;10.18;3.58;;;;;;;;;;5009342;28;20113;-75
2022/05/27 14:07:01;;;;;;;8.82;2.78;;;;;;;;;;5022245;28;20045;-75
2022/05/27 14:09:29;;;;;;;7.97;3.20;;;;;;;;;;5011384;28;20045;-75
2022/05/27 14:12:00;;;;;;;12.90;3.45;;;;;;;;;;5008699;28;20049;-75
2022/05/27 14:14:30;;;;;;;9.32;3.38;;;;;;;;;;5006791;28;20053;-75
2022/05/27 14:16:56;;;;;;;12.73;3.03;;;;;;;;;;5024253;28;20072;-74
2022/05/27 14:19:27;;;;;;;9.73;3.35;;;;;;;;;;5002515;28;20054;-75
2022/05/27 14:25:02;;;;;;;9.50;2.83;;;;;;;;;;5012405;28;20974;-75
2022/05/27 14:27:31;;;;;;;8.73;3.00;;;;;;;;;;5009492;28;20129;-75
2022/05/27 14:29:57;;;;;;;6.50;2.88;;;;;;;;;;5010436;28;20048;-75
2022/05/27 14:32:24;;;;;;;8.10;3.25;;;;;;;;;;5008581;28;20045;-75
2022/05/27 14:34:52;;;;;;;7.68;3.00;;;;;;;;;;5007588;28;20060;-75
2022/05/27 14:37:35;;;;;;;8.98;3.20;;;;;;;;;;4994289;28;20046;-75
2022/05/27 14:40:08;;;;;;;10.13;2.75;;;;;;;;;;5030098;28;20077;-76
2022/05/27 14:42:35;;;;;;;7.38;2.70;;;;;;;;;;5006808;28;20568;-75
2022/05/27 14:45:01;;;;;;;6.05;2.78;;;;;;;;;;5008703;28;20502;-77
2022/05/27 14:47:29;;;;;;;10.23;3.63;;;;;;;;;;5000652;28;20057;-74
2022/05/27 14:49:56;;;;;;;8.80;3.00;;;;;;;;;;5010441;28;20045;-78
2022/05/27 14:52:22;;;;;;;8.43;3.00;;;;;;;;;;5008058;28;20049;-77
2022/05/27 14:54:52;;;;;;;7.43;3.05;;;;;;;;;;5008375;28;20034;-79
2022/05/27 14:57:27;;;;;;;9.20;3.22;;;;;;;;;;5010223;28;20046;-78
2022/05/27 14:59:55;;;;;;;6.55;3.22;;;;;;;;;;5014666;28;20046;-77
2022/05/27 15:02:24;;;;;;;12.73;7.10;;;;;;;;;;5009787;28;20053;-78
2022/05/27 15:05:05;;;;;;;5.82;2.42;;;;;;;;;;5008475;28;20052;-79
2022/05/27 15:07:51;;;;;;;7.60;3.08;;;;;;;;;;5009566;28;20053;-75
2022/05/27 15:10:23;;;;;;;6.22;2.63;;;;;;;;;;5012801;28;20076;-75
2022/05/27 15:12:50;;;;;;;8.73;2.78;;;;;;;;;;5014263;28;20050;-77
2022/05/27 15:15:28;;;;;;;7.78;2.58;;;;;;;;;;5011961;28;20077;-77
2022/05/27 15:18:01;;;;;;;7.65;2.70;;;;;;;;;;5010342;28;20069;-77
2022/05/27 15:20:27;;;;;;;9.23;2.78;;;;;;;;;;5012671;28;20119;-78
2022/05/27 15:22:55;;;;;;;7.57;2.95;;;;;;;;;;5037614;28;20039;-77
2022/05/27 15:25:24;;;;;;;8.77;3.10;;;;;;;;;;5012247;28;20045;-81
2022/05/27 15:33:06;;;;;;;8.95;2.85;;;;;;;;;;5002722;28;20132;-77
2022/05/27 15:33:44;;;;;;;9.63;3.30;;;;;;;;;;5008712;28;20053;-77
2022/05/27 15:36:11;;;;;;;6.47;2.92;;;;;;;;;;5011219;28;20417;-78
2022/05/27 15:38:38;;;;;;;8.20;2.72;;;;;;;;;;5004356;28;20617;-79
2022/05/27 15:41:05;;;;;;;7.78;2.90;;;;;;;;;;5014986;28;20050;-77